createdAt,value
2023-04-29T00:01:15.345Z,6.82
2023-04-29T00:06:09.414Z,6.97
2023-04-29T00:08:36.454Z,6.75
2023-04-29T00:11:03.377Z,7.13
2023-04-29T00:13:30.263Z,7.53
2023-04-29T00:15:57.121Z,8.18
2023-04-29T00:18:23.909Z,7.25
2023-04-29T00:20:50.833Z,7.78
2023-04-29T00:23:17.611Z,8.13
2023-04-29T00:25:44.384Z,7.20
2023-04-29T00:28:11.219Z,6.85
2023-04-29T00:30:38.153Z,8.18
2023-04-29T00:33:05.031Z,8.57
2023-04-29T00:35:31.859Z,7.60
2023-04-29T00:37:58.588Z,7.55
2023-04-29T00:40:25.361Z,8.10
2023-04-29T00:42:52.196Z,7.57
2023-04-29T00:45:19.022Z,7.78
2023-04-29T00:47:45.805Z,7.95
2023-04-29T00:50:12.677Z,7.53
2023-04-29T00:52:40.006Z,8.50
2023-04-29T00:55:09.002Z,7.70
2023-04-29T00:57:35.845Z,8.40
2023-04-29T01:00:03.926Z,7.45
2023-04-29T01:02:30.903Z,8.23
2023-04-29T01:04:57.804Z,8.52
2023-04-29T01:07:34.573Z,9.63
2023-04-29T01:10:10.708Z,8.63
2023-04-29T01:12:37.568Z,9.48
2023-04-29T01:15:26.895Z,10.13
2023-04-29T01:18:10.668Z,9.90
2023-04-29T01:20:38.716Z,9.65
2023-04-29T01:23:05.646Z,10.00
2023-04-29T01:25:32.383Z,10.48
2023-04-29T01:28:18.926Z,9.43
2023-04-29T01:31:09.107Z,10.43
2023-04-29T01:33:44.539Z,10.55
2023-04-29T01:36:17.753Z,10.40
2023-04-29T01:38:58.208Z,10.35
2023-04-29T01:41:36.326Z,10.70
2023-04-29T01:44:04.517Z,9.00
2023-04-29T01:46:31.380Z,10.63
2023-04-29T01:48:58.133Z,10.57
2023-04-29T01:51:25.026Z,9.65
2023-04-29T01:53:51.817Z,9.82
2023-04-29T01:56:18.551Z,10.55
2023-04-29T01:58:45.330Z,10.38
2023-04-29T02:01:12.755Z,9.80
2023-04-29T02:03:39.943Z,9.75
2023-04-29T02:06:07.207Z,11.23
2023-04-29T02:08:34.021Z,9.70
2023-04-29T02:11:00.862Z,11.25
2023-04-29T02:13:27.573Z,11.50
2023-04-29T02:15:54.368Z,9.93
2023-04-29T02:18:21.552Z,9.98
2023-04-29T02:20:50.624Z,9.75
2023-04-29T02:23:17.412Z,10.05
2023-04-29T02:25:44.171Z,9.68
2023-04-29T02:28:10.858Z,11.73
2023-04-29T02:33:05.253Z,10.63
2023-04-29T02:35:33.767Z,9.77
2023-04-29T02:38:00.540Z,10.13
2023-04-29T02:40:27.289Z,10.48
2023-04-29T02:42:54.045Z,9.45
2023-04-29T02:45:20.752Z,10.20
2023-04-29T02:47:47.560Z,10.40
2023-04-29T02:50:14.471Z,11.25
2023-04-29T02:52:42.052Z,10.23
2023-04-29T02:55:09.505Z,10.45
2023-04-29T02:57:36.277Z,10.80
2023-04-29T03:00:04.096Z,10.32
2023-04-29T03:02:31.026Z,11.20
2023-04-29T03:04:57.794Z,10.50
2023-04-29T03:07:24.629Z,11.05
2023-04-29T03:09:51.811Z,10.57
2023-04-29T03:12:18.724Z,10.32
2023-04-29T03:14:45.479Z,8.65
2023-04-29T03:17:12.334Z,8.73
2023-04-29T03:19:39.160Z,8.38
2023-04-29T03:22:06.337Z,9.50
2023-04-29T03:24:33.120Z,8.23
2023-04-29T03:27:02.608Z,8.43
2023-04-29T03:29:29.399Z,8.30
2023-04-29T03:31:56.942Z,7.88
2023-04-29T03:34:24.587Z,8.35
2023-04-29T03:36:51.474Z,7.95
2023-04-29T03:39:18.571Z,8.13
2023-04-29T03:41:46.779Z,7.32
2023-04-29T03:44:13.719Z,7.75
2023-04-29T03:46:40.601Z,8.60
2023-04-29T03:49:07.364Z,7.82
2023-04-29T03:51:34.174Z,8.70
2023-04-29T03:54:01.770Z,7.65
2023-04-29T03:56:28.465Z,7.80
2023-04-29T04:01:22.028Z,8.00
2023-04-29T04:03:49.137Z,8.50
2023-04-29T04:06:16.065Z,8.63
2023-04-29T04:08:42.827Z,8.15
2023-04-29T04:11:09.912Z,8.55
2023-04-29T04:13:37.180Z,7.65
2023-04-29T04:16:04.213Z,7.95
2023-04-29T04:18:31.185Z,8.68
2023-04-29T04:20:57.952Z,9.40
2023-04-29T04:23:24.881Z,8.95
2023-04-29T04:25:53.316Z,8.55
2023-04-29T04:28:20.055Z,8.90
2023-04-29T04:30:46.977Z,8.45
2023-04-29T04:33:13.729Z,8.57
2023-04-29T04:35:40.445Z,7.97
2023-04-29T04:40:34.248Z,8.23
2023-04-29T04:45:29.940Z,8.02
2023-04-29T04:47:57.159Z,8.90
2023-04-29T04:50:24.152Z,8.73
2023-04-29T04:52:51.028Z,8.73
2023-04-29T04:55:17.889Z,8.88
2023-04-29T04:57:44.628Z,8.90
2023-04-29T05:00:12.055Z,8.88
2023-04-29T05:02:38.960Z,8.80
2023-04-29T05:05:06.090Z,8.90
2023-04-29T05:07:35.800Z,9.07
2023-04-29T05:10:03.399Z,8.65
2023-04-29T05:12:31.016Z,9.93
2023-04-29T05:14:58.269Z,8.90
2023-04-29T05:17:25.103Z,9.75
2023-04-29T05:19:51.947Z,10.15
2023-04-29T05:22:18.853Z,10.65
2023-04-29T05:24:45.671Z,12.35
2023-04-29T05:27:12.410Z,16.60
2023-04-29T05:29:39.439Z,12.32
2023-04-29T05:32:06.305Z,12.70
2023-04-29T05:34:33.094Z,13.13
2023-04-29T05:36:59.859Z,13.25
2023-04-29T05:39:26.796Z,13.07
2023-04-29T05:41:53.583Z,13.60
2023-04-29T05:44:20.370Z,12.25
2023-04-29T05:46:48.756Z,11.93
2023-04-29T05:49:15.961Z,12.90
2023-04-29T05:51:42.683Z,14.10
2023-04-29T05:54:09.470Z,14.73
2023-04-29T05:56:36.238Z,13.73
2023-04-29T05:59:02.977Z,13.00
2023-04-29T06:01:29.716Z,12.90
2023-04-29T06:03:56.683Z,12.90
2023-04-29T06:06:23.729Z,12.80
2023-04-29T06:08:50.558Z,12.50
2023-04-29T06:11:17.344Z,12.48
2023-04-29T06:13:44.576Z,12.75
2023-04-29T06:16:12.197Z,12.55
2023-04-29T06:18:39.212Z,15.00
2023-04-29T06:21:06.262Z,12.88
2023-04-29T06:23:33.148Z,12.38
2023-04-29T06:25:59.866Z,13.85
2023-04-29T06:28:26.697Z,13.32
2023-04-29T06:30:53.635Z,13.70
2023-04-29T06:33:20.379Z,13.38
2023-04-29T06:35:47.101Z,13.93
2023-04-29T06:38:13.898Z,14.50
2023-04-29T06:40:40.658Z,14.18
2023-04-29T06:43:08.158Z,14.18
2023-04-29T06:45:34.938Z,13.75
2023-04-29T06:48:01.675Z,12.73
2023-04-29T06:50:28.469Z,12.85
2023-04-29T06:52:55.266Z,13.20
2023-04-29T06:55:21.988Z,13.13
2023-04-29T06:57:48.809Z,14.45
2023-04-29T07:00:16.445Z,14.35
2023-04-29T07:02:43.307Z,15.05
2023-04-29T07:05:10.508Z,15.43
2023-04-29T07:07:37.285Z,15.35
2023-04-29T07:10:04.335Z,15.40
2023-04-29T07:12:31.107Z,15.57
2023-04-29T07:14:58.379Z,15.55
2023-04-29T07:17:25.106Z,13.07
2023-04-29T07:19:53.514Z,13.73
2023-04-29T07:22:20.523Z,15.00
2023-04-29T07:24:47.246Z,14.13
2023-04-29T07:27:14.017Z,14.50
2023-04-29T07:29:40.726Z,14.75
2023-04-29T07:32:08.013Z,11.80
2023-04-29T07:34:34.824Z,11.98
2023-04-29T07:37:01.573Z,12.68
2023-04-29T07:39:29.298Z,12.00
2023-04-29T07:41:56.117Z,12.52
2023-04-29T07:44:23.235Z,11.18
2023-04-29T07:46:50.023Z,12.77
2023-04-29T07:49:16.918Z,12.88
2023-04-29T07:51:44.067Z,12.38
2023-04-29T07:54:10.927Z,12.77
2023-04-29T07:56:37.676Z,12.68
2023-04-29T07:59:04.458Z,11.38
2023-04-29T08:01:31.458Z,10.93
2023-04-29T08:03:58.341Z,12.18
2023-04-29T08:06:25.194Z,11.98
2023-04-29T08:08:52.736Z,10.43
2023-04-29T08:11:20.690Z,10.20
2023-04-29T08:13:48.239Z,12.02
2023-04-29T08:16:15.194Z,13.23
2023-04-29T08:18:42.664Z,11.73
2023-04-29T08:21:11.452Z,12.25
2023-04-29T08:23:39.289Z,12.57
2023-04-29T08:26:06.186Z,11.20
2023-04-29T08:28:32.919Z,10.13
2023-04-29T08:30:59.892Z,10.65
2023-04-29T08:33:26.911Z,10.50
2023-04-29T08:36:00.720Z,10.30
2023-04-29T08:38:28.443Z,9.88
2023-04-29T08:40:56.368Z,9.43
2023-04-29T08:43:23.479Z,10.52
2023-04-29T08:45:50.487Z,8.68
2023-04-29T08:48:18.583Z,9.38
2023-04-29T08:50:45.690Z,8.95
2023-04-29T08:53:14.255Z,8.98
2023-04-29T08:55:42.955Z,8.70
2023-04-29T08:58:10.907Z,8.82
2023-04-29T09:00:38.372Z,8.98
2023-04-29T09:03:22.155Z,7.90
2023-04-29T09:05:52.935Z,8.70
2023-04-29T09:08:22.437Z,8.27
2023-04-29T09:10:50.065Z,8.25
2023-04-29T09:13:31.041Z,7.15
2023-04-29T09:15:58.494Z,8.05
2023-04-29T09:18:45.392Z,8.15
2023-04-29T09:21:22.219Z,7.18
2023-04-29T09:23:51.927Z,6.95
2023-04-29T09:26:18.830Z,7.45
2023-04-29T09:28:47.604Z,6.80
2023-04-29T09:31:14.659Z,7.00
2023-04-29T09:33:51.647Z,8.02
2023-04-29T09:36:40.436Z,6.40
2023-04-29T09:39:12.113Z,6.97
2023-04-29T09:41:43.048Z,7.10
2023-04-29T09:44:10.567Z,6.80
2023-04-29T09:46:38.257Z,7.20
2023-04-29T09:49:23.425Z,6.60
2023-04-29T09:51:54.985Z,5.80
2023-04-29T09:54:23.278Z,6.63
2023-04-29T09:56:52.477Z,6.80
2023-04-29T09:59:20.188Z,7.38
2023-04-29T10:01:52.072Z,6.55
2023-04-29T10:04:21.392Z,6.80
2023-04-29T10:06:54.216Z,7.68
2023-04-29T10:11:50.848Z,7.40
2023-04-29T10:14:19.287Z,6.60
2023-04-29T10:16:54.838Z,7.60
2023-04-29T10:19:42.274Z,7.28
2023-04-29T10:22:26.962Z,7.70
2023-04-29T10:24:57.573Z,7.43
2023-04-29T10:27:25.376Z,7.85
2023-04-29T10:29:54.563Z,8.00
2023-04-29T10:32:22.777Z,7.20
2023-04-29T10:34:51.766Z,7.30
2023-04-29T10:37:19.261Z,8.57
